This is the latest recevied weather packets stored in our database for station/object JL1LCW-13. If no packets are shown the sender has not sent any weather packets the latest 10 day(s).
| Time | Temp. | Humidity | Pressure | Rain* | Wind** | Luminosity | Snow |
|---|---|---|---|---|---|---|---|
| 1777909018 | 15° C | 61% | 1010 hPa | 0 mm | - | - | - |
| 1777906319 | 16.11° C | 57% | 1008 hPa | 0 mm | - | - | - |
| 1777905418 | 17.22° C | 59% | 1008 hPa | 0 mm | - | - | - |
| 1777901817 | 16.11° C | 78% | 1007 hPa | 0 mm | - | - | - |
| 1777898218 | 16.11° C | 99% | 1005 hPa | 0 mm | - | - | - |
| 1777895519 | 17.22° C | 99% | 1004 hPa | 0 mm | - | - | - |
| 1777894619 | 17.22° C | 99% | 1003 hPa | 0 mm | - | - | - |
| 1777891017 | 17.22° C | 98% | 1001 hPa | 0 mm | - | - | - |
| 1777887418 | 21.11° C | 92% | 999 hPa | 0 mm | - | - | - |
| 1777884719 | 22.22° C | 78% | 997 hPa | 0 mm | - | - | - |
| 1777883818 | 22.22° C | 79% | 997 hPa | 0 mm | - | - | - |
| 1777881117 | 22.78° C | 82% | 996 hPa | 0 mm | - | - | - |
| 1777880217 | 22.78° C | 80% | 996 hPa | 0 mm | - | - | - |
| 1777877518 | 23.89° C | 79% | 996 hPa | 0 mm | - | - | - |
| 1777876618 | 25° C | 78% | 996 hPa | 0 mm | - | - | - |
| 1777873918 | 27.22° C | 71% | 996 hPa | 0 mm | - | - | - |
| 1777873017 | 27.78° C | 71% | 996 hPa | 0 mm | - | - | - |
| 1777870319 | 27.78° C | 74% | 995 hPa | 0 mm | - | - | - |
| 1777869419 | 27.22° C | 75% | 996 hPa | 0 mm | - | - | - |
| 1777866718 | 27.22° C | 82% | 996 hPa | 0 mm | - | - | - |
| 1777865817 | 26.11° C | 84% | 996 hPa | 0 mm | - | - | - |
| 1777844217 | 22.22° C | 99% | 997 hPa | 0.76 mm | - | - | - |
| 1777840618 | 22.22° C | 99% | 998 hPa | 0 mm | - | - | - |
| 1777837919 | 20° C | 99% | 999 hPa | 0 mm | - | - | - |
| 1777829818 | 20° C | 99% | 1002 hPa | 0 mm | - | - | - |
* Rain latest hour (hover to see other rain measurements)
** Current wind speed in m/s (hover to see current wind gust speed)